首页
METAR-TAF:

METAR-TAF

机场 :

Adirondack Regional Airport

Saranac Lake, 紐約州, 美国

纬度: 44-23-35N, 经度: 074-12-10W, 海拔: 507米

当前天气观测

该预报发布于1小时和0分钟前的04:51 UTC
静风
温度 -19°C
湿度 84%
气压 1027 hPa
能見度: 16.1公里
天空无云

METAR: KSLK 080451Z AUTO 00000KT 10SM CLR M19/M21 A3033 RMK AO2 SLP311 T11891211 410671189

时间: 00:51 (05:51 UTC)

预报

该预报发布于28分钟前的05:23 UTC
预报有效从08日的 06点(UTC)到 09日的 06点(UTC)
风速节,风向
能見度: 10公里
少量云层高于25000英尺
从 08日的 1400点(UTC)
风速9节,风向南转西南,有时为19节阵风
能見度: 10公里
多云层高于15000英尺
从 08日的 1700点(UTC)
风速11节,风向,有时为21节阵风
能見度: 10公里
阴天层高于9000英尺
从 09日的 0200点(UTC)
风速15节,风向南转西南,有时为25节阵风
能見度: 10公里
阴天层高于4000英尺
从 09日的 0300点(UTC)
风速14节,风向南转西南,有时为24节阵风
能見度: 10公里
阴天层高于4000英尺
附近有阵雨
从 09日的 0500点(UTC)
风速13节,风向南转西南,有时为23节阵风
能見度: 10公里
阴天层高于2800英尺
附近有阵雨

TAF: KSLK 080523Z 0806/0906 00000KT P6SM FEW250 FM081400 20009G19KT P6SM BKN150 FM081700 19011G21KT P6SM OVC090 WS020/23040KT FM090200 21015G25KT P6SM OVC040 WS020/24055KT FM090300 21014G24KT P6SM VCSH OVC040 WS020/24055KT FM090500 21013G23KT P6SM VCSH OVC028 WS020/24055KT

超过4000个机场的气象观测和天气预报(METAR&TAF报告)。

可查询的气象台以黄色和红色小点在地图上表示。

将鼠标移到小点上方,可查看气象台名称。

然后点击查看天气观测和预报。

如需切换地图:点击带黑十字的绿色按钮放大地图;点击带横线的绿色按钮缩小地图;或者点击绿色箭头查看邻近地区的地图。


METAR-TAF: